Time;durP1;ratioP1;P1;durP2;ratioP2;P2;SDS_P1;SDS_P2;PMS_P1;PMS_P2;Temp;Humidity;BMP_temperature;BMP_pressure;BME280_temperature;BME280_humidity;BME280_pressure;Samples;Min_cycle;Max_cycle;Signal;HPM_P1;HPM_P2
2022/02/01 00:00:46;;;;;;;;;;;;;;;11.07;69.93;101828.31;7365384;19;19922;-61
2022/02/01 00:03:14;;;;;;;;;;;;;;;11.08;70.09;101832.66;7361693;19;21797;-61
2022/02/01 00:11:08;;;;;;;;;;;;;;;11.10;70.00;101838.75;1589199;19;10020906;-61
2022/02/01 00:37:51;;;;;;;;;;;;;;;11.18;70.27;101857.84;7364483;19;19919;-61
2022/02/01 00:40:17;;;;;;;;;;;;;;;11.19;70.30;101858.72;7366010;19;19934;-60
2022/02/01 00:42:42;;;;;;;;;;;;;;;11.20;70.27;101859.59;7365231;19;20323;-61
2022/02/01 00:45:07;;;;;;;;;;;;;;;11.19;70.47;101853.50;7371200;19;19923;-61
2022/02/01 00:47:33;;;;;;;;;;;;;;;11.21;70.41;101861.34;7365091;19;19914;-61
2022/02/01 00:49:58;;;;;;;;;;;;;;;11.22;70.67;101839.53;7365667;19;19926;-60
2022/02/01 00:52:26;;;;;;;;;;;;;;;11.22;70.73;101845.66;7362261;19;19919;-61
2022/02/01 00:54:51;;;;;;;;;;;;;;;11.22;70.63;101856.09;7355731;19;20390;-60
2022/02/01 00:57:18;;;;;;;;;;;;;;;11.23;70.48;101855.22;7359945;19;20475;-61
2022/02/01 00:59:43;;;;;;;;;;;;;;;11.24;70.49;101845.63;7349672;19;21541;-61
2022/02/01 01:02:08;;;;;;;;;;;;;;;11.24;70.55;101829.94;7364845;19;19998;-61
2022/02/01 01:04:34;;;;;;;;;;;;;;;11.25;70.44;101832.53;7358801;19;19931;-61
2022/02/01 01:06:59;;;;;;;;;;;;;;;11.26;70.75;101851.72;7362012;19;19915;-61
2022/02/01 01:09:25;;;;;;;;;;;;;;;11.25;70.42;101858.66;7362668;19;19938;-62
2022/02/01 01:11:54;;;;;;;;;;;;;;;11.25;70.82;101861.28;7358862;19;19933;-60
2022/02/01 01:14:50;;;;;;;;;;;;;;;11.25;70.72;101870.88;7363848;19;19931;-59
2022/02/01 01:44:46;;;;;;;;;;;;;;;11.29;71.23;101890.91;7358574;19;19955;-61
2022/02/01 01:55:24;;;;;;;;;;;;;;;11.28;71.20;101895.28;7360276;19;20013;-61
2022/02/01 01:57:50;;;;;;;;;;;;;;;11.27;71.53;101897.91;7361418;19;20020;-60
2022/02/01 02:00:32;;;;;;;;;;;;;;;11.27;71.36;101892.69;7361844;19;19941;-61
2022/02/01 02:02:58;;;;;;;;;;;;;;;11.24;71.78;101909.25;7362514;19;19911;-61
2022/02/01 02:05:39;;;;;;;;;;;;;;;11.17;71.75;101892.72;2660096;19;10021862;-60
2022/02/01 02:08:04;;;;;;;;;;;;;;;11.22;71.83;101911.00;6548462;19;10001229;-61
2022/02/01 02:10:35;;;;;;;;;;;;;;;11.20;71.42;101906.66;7368754;19;20014;-61
2022/02/01 02:16:01;;;;;;;;;;;;;;;11.18;71.67;101911.91;7356940;19;19922;-61
2022/02/01 02:18:28;;;;;;;;;;;;;;;11.19;72.05;101897.94;7360556;19;19952;-61
2022/02/01 02:20:54;;;;;;;;;;;;;;;11.18;72.05;101904.91;7359043;19;19939;-61
2022/02/01 02:23:19;;;;;;;;;;;;;;;11.18;72.23;101904.91;7363096;19;22158;-60
2022/02/01 02:25:45;;;;;;;;;;;;;;;11.20;72.42;101893.56;7362275;19;19923;-61
2022/02/01 02:28:13;;;;;;;;;;;;;;;11.20;72.60;101923.19;7362884;19;19917;-60
2022/02/01 02:30:39;;;;;;;;;;;;;;;11.22;72.37;101899.69;7359730;19;19948;-61
2022/02/01 02:33:06;;;;;;;;;;;;;;;11.23;72.64;101880.50;7360947;19;19914;-61
2022/02/01 02:35:35;;;;;;;;;;;;;;;11.23;72.71;101885.72;7362300;19;19914;-61
2022/02/01 02:38:09;;;;;;;;;;;;;;;11.22;72.80;101884.00;7360450;19;19934;-61
2022/02/01 02:45:58;;;;;;;;;;;;;;;11.23;72.42;101864.81;7362710;19;19945;-61
2022/02/01 02:48:23;;;;;;;;;;;;;;;11.23;72.62;101875.25;7359382;19;19922;-61
2022/02/01 02:50:49;;;;;;;;;;;;;;;11.22;73.04;101868.31;7367346;19;19922;-60
2022/02/01 02:53:14;;;;;;;;;;;;;;;11.22;73.18;101865.69;7368339;19;19929;-61
2022/02/01 02:55:39;;;;;;;;;;;;;;;11.21;72.73;101871.81;7365091;19;20003;-61
2022/02/01 02:58:04;;;;;;;;;;;;;;;11.21;73.15;101877.03;7363684;19;20020;-61
2022/02/01 03:00:29;;;;;;;;;;;;;;;11.20;73.08;101876.13;7366633;19;19926;-61
2022/02/01 03:02:55;;;;;;;;;;;;;;;11.20;73.21;101883.13;7367368;19;19948;-61
2022/02/01 03:05:20;;;;;;;;;;;;;;;11.20;73.54;101880.50;7367057;19;19939;-61
2022/02/01 03:07:45;;;;;;;;;;;;;;;11.20;73.32;101883.97;7366119;19;19945;-60
2022/02/01 03:10:10;;;;;;;;;;;;;;;11.20;73.43;101876.13;7346567;19;19938;-61
2022/02/01 03:13:05;;;;;;;;;;;;;;;11.18;73.16;101868.31;7361727;19;20268;-60
2022/02/01 03:20:36;;;;;;;;;;;;;;;11.16;73.21;101841.31;7364277;19;20272;-60
2022/02/01 03:23:01;;;;;;;;;;;;;;;11.19;73.59;101832.56;7366064;19;19922;-61
2022/02/01 03:25:28;;;;;;;;;;;;;;;11.19;73.44;101829.97;7367706;19;19918;-61
2022/02/01 03:27:54;;;;;;;;;;;;;;;11.19;73.44;101832.56;7368084;19;19940;-60
2022/02/01 03:30:19;;;;;;;;;;;;;;;11.18;73.81;101808.19;7366269;19;19990;-61
2022/02/01 03:32:44;;;;;;;;;;;;;;;11.20;73.60;101822.97;7363505;19;20353;-61
2022/02/01 03:35:09;;;;;;;;;;;;;;;11.18;73.98;101810.78;7365737;19;19915;-61
2022/02/01 03:37:35;;;;;;;;;;;;;;;11.18;73.70;101815.16;7365324;19;19929;-61
2022/02/01 03:40:00;;;;;;;;;;;;;;;11.18;74.05;101809.94;7366267;19;20006;-61
2022/02/01 03:42:26;;;;;;;;;;;;;;;11.18;73.98;101828.22;7364917;19;19946;-61
2022/02/01 03:44:51;;;;;;;;;;;;;;;11.18;73.93;101816.03;7342989;19;20285;-61
2022/02/01 03:47:17;;;;;;;;;;;;;;;11.18;74.27;101805.56;7361654;19;19941;-61
2022/02/01 03:49:42;;;;;;;;;;;;;;;11.18;74.43;101800.34;7368803;19;19919;-61
2022/02/01 03:52:08;;;;;;;;;;;;;;;11.17;74.27;101788.16;7364229;19;20467;-62
2022/02/01 03:54:34;;;;;;;;;;;;;;;11.16;73.88;101786.44;7358180;19;19922;-61
2022/02/01 03:57:00;;;;;;;;;;;;;;;11.10;74.14;101776.03;7356994;19;20567;-60
2022/02/01 03:59:36;;;;;;;;;;;;;;;11.12;74.32;101782.09;3405935;19;10002047;-61
2022/02/01 04:02:02;;;;;;;;;;;;;;;11.17;74.25;101777.69;5525683;19;10001060;-60
2022/02/01 04:04:28;;;;;;;;;;;;;;;11.19;74.41;101769.84;7362788;19;19954;-61
2022/02/01 04:06:54;;;;;;;;;;;;;;;11.20;74.19;101770.69;7356317;19;20423;-61
2022/02/01 04:09:21;;;;;;;;;;;;;;;11.20;74.77;101775.91;7366380;19;19935;-61
2022/02/01 04:11:47;;;;;;;;;;;;;;;11.21;74.66;101777.69;7364236;19;19927;-62
2022/02/01 04:14:19;;;;;;;;;;;;;;;11.20;74.54;101755.00;7365385;19;19919;-61
2022/02/01 04:16:45;;;;;;;;;;;;;;;11.22;74.67;101763.72;7360320;19;19919;-61
2022/02/01 04:19:10;;;;;;;;;;;;;;;11.23;74.61;101760.22;7360335;19;19929;-61
2022/02/01 04:21:37;;;;;;;;;;;;;;;11.23;74.77;101755.00;7360815;19;19919;-61
2022/02/01 04:24:02;;;;;;;;;;;;;;;11.23;74.81;101763.69;7363358;19;19919;-61
2022/02/01 04:26:27;;;;;;;;;;;;;;;11.23;74.80;101761.09;7374682;19;19979;-61
2022/02/01 04:28:53;;;;;;;;;;;;;;;11.25;74.73;101766.28;7376632;19;19925;-61
2022/02/01 04:31:18;;;;;;;;;;;;;;;11.26;74.88;101773.28;7372255;19;19915;-60
2022/02/01 04:33:43;;;;;;;;;;;;;;;11.26;75.02;101776.75;7375130;19;19915;-60
2022/02/01 04:36:09;;;;;;;;;;;;;;;11.28;75.38;101774.13;7374823;19;20370;-61
2022/02/01 04:38:36;;;;;;;;;;;;;;;11.30;75.28;101782.81;7362912;19;19919;-61
2022/02/01 04:41:02;;;;;;;;;;;;;;;11.32;75.30;101781.06;7365352;19;19938;-61
2022/02/01 04:43:27;;;;;;;;;;;;;;;11.34;75.65;101779.28;7366872;19;19959;-61
2022/02/01 04:45:53;;;;;;;;;;;;;;;11.35;75.56;101788.88;7369600;19;20281;-61
2022/02/01 04:48:18;;;;;;;;;;;;;;;11.37;75.63;101785.38;7363743;19;19974;-61
2022/02/01 04:50:43;;;;;;;;;;;;;;;11.40;75.28;101787.09;7365928;19;19919;-61
2022/02/01 04:53:08;;;;;;;;;;;;;;;11.42;75.73;101803.66;7360974;19;20308;-61
2022/02/01 04:55:55;;;;;;;;;;;;;;;11.45;75.33;101806.22;7366270;19;20247;-61
2022/02/01 04:58:22;;;;;;;;;;;;;;;11.47;75.63;101801.00;7366919;19;20347;-60
2022/02/01 05:00:47;;;;;;;;;;;;;;;11.51;75.52;101797.47;7365463;19;19921;-61
2022/02/01 05:03:12;;;;;;;;;;;;;;;11.52;75.42;101800.06;7360381;19;19982;-61
2022/02/01 05:05:38;;;;;;;;;;;;;;;11.50;75.62;101780.03;7366662;19;20001;-61
2022/02/01 05:08:08;;;;;;;;;;;;;;;11.58;75.50;101801.75;7362398;19;19922;-61
2022/02/01 05:10:34;;;;;;;;;;;;;;;11.51;75.79;101782.66;7368864;19;20273;-61
2022/02/01 05:15:34;;;;;;;;;;;;;;;11.65;75.41;101806.91;7366707;19;19923;-61
2022/02/01 05:17:59;;;;;;;;;;;;;;;11.67;75.50;101799.06;7360398;19;19914;-61
2022/02/01 05:20:47;;;;;;;;;;;;;;;11.69;75.69;101802.53;7361115;19;19935;-61
2022/02/01 05:23:13;;;;;;;;;;;;;;;11.71;75.30;101800.78;7357293;19;20358;-61
2022/02/01 05:25:40;;;;;;;;;;;;;;;11.73;75.49;101799.00;7366607;19;19975;-62
2022/02/01 05:28:05;;;;;;;;;;;;;;;11.74;75.30;101799.88;7361096;19;19922;-61
2022/02/01 05:30:30;;;;;;;;;;;;;;;11.76;75.35;101798.09;7365243;19;19919;-60
2022/02/01 05:32:56;;;;;;;;;;;;;;;11.78;75.21;101801.56;7363616;19;20480;-61
2022/02/01 05:35:21;;;;;;;;;;;;;;;11.65;75.26;101775.50;7360044;19;19919;-61
2022/02/01 05:37:46;;;;;;;;;;;;;;;11.80;75.24;101802.41;7353707;19;19919;-61
2022/02/01 05:40:12;;;;;;;;;;;;;;;11.81;75.38;101791.06;7363580;19;20463;-61
2022/02/01 05:42:55;;;;;;;;;;;;;;;11.81;74.95;101796.28;7360686;19;19941;-59
2022/02/01 05:45:20;;;;;;;;;;;;;;;11.82;74.99;101785.00;7362214;19;19911;-61
2022/02/01 05:47:46;;;;;;;;;;;;;;;11.83;75.46;101787.59;7357297;19;19914;-61
2022/02/01 05:50:11;;;;;;;;;;;;;;;11.84;75.36;101809.38;7361022;19;19930;-62
2022/02/01 05:52:54;;;;;;;;;;;;;;;11.75;75.10;101757.09;3773583;19;10001784;-61
2022/02/01 05:55:19;;;;;;;;;;;;;;;11.85;75.02;101798.03;5529836;19;10001516;-61
2022/02/01 05:57:44;;;;;;;;;;;;;;;11.88;75.39;101808.47;7364591;19;20356;-61
2022/02/01 06:00:10;;;;;;;;;;;;;;;11.86;74.99;101798.03;7360905;19;20375;-61
2022/02/01 06:02:35;;;;;;;;;;;;;;;11.87;74.94;101794.53;7364903;19;19926;-61
2022/02/01 06:05:01;;;;;;;;;;;;;;;11.87;75.13;101801.53;7361945;19;19942;-61
2022/02/01 06:07:26;;;;;;;;;;;;;;;11.89;74.99;101804.97;7363214;19;19915;-61
2022/02/01 06:09:51;;;;;;;;;;;;;;;11.88;75.27;101803.25;7365742;19;19925;-61
2022/02/01 06:12:16;;;;;;;;;;;;;;;11.89;75.19;101810.22;7362497;19;19919;-60
2022/02/01 06:14:42;;;;;;;;;;;;;;;11.90;75.32;101806.69;7364617;19;19935;-61
2022/02/01 06:17:08;;;;;;;;;;;;;;;11.91;75.09;101805.81;7362024;19;19931;-60
2022/02/01 06:19:34;;;;;;;;;;;;;;;11.91;75.28;101804.09;7364581;19;20306;-61
2022/02/01 06:22:00;;;;;;;;;;;;;;;11.92;75.03;101807.56;7360808;19;20014;-60
2022/02/01 06:24:25;;;;;;;;;;;;;;;11.92;75.35;101802.34;7369355;19;19937;-61
2022/02/01 06:26:51;;;;;;;;;;;;;;;11.93;75.11;101811.91;7371310;19;19942;-60
2022/02/01 06:29:16;;;;;;;;;;;;;;;11.92;75.44;101804.94;7371237;19;19923;-61
2022/02/01 06:31:41;;;;;;;;;;;;;;;11.93;75.43;101806.69;7368363;19;19937;-61
2022/02/01 06:34:06;;;;;;;;;;;;;;;11.93;75.35;101811.91;7369560;19;19918;-61
2022/02/01 06:36:32;;;;;;;;;;;;;;;11.94;75.37;101813.66;7367648;19;19930;-61
2022/02/01 06:38:57;;;;;;;;;;;;;;;11.95;75.33;101810.13;7368724;19;20442;-61
2022/02/01 06:41:22;;;;;;;;;;;;;;;11.95;75.46;101820.59;7370575;19;19954;-61
2022/02/01 06:43:48;;;;;;;;;;;;;;;11.95;75.00;101804.91;7356857;19;19936;-60
2022/02/01 06:46:14;;;;;;;;;;;;;;;11.94;75.34;101804.03;7367554;19;19915;-61
2022/02/01 06:48:39;;;;;;;;;;;;;;;11.97;75.06;101807.53;7369787;19;19938;-59
2022/02/01 06:51:04;;;;;;;;;;;;;;;11.98;75.07;101802.25;7367986;19;19940;-61
2022/02/01 06:53:35;;;;;;;;;;;;;;;11.99;75.58;101805.75;7375731;19;19919;-61
2022/02/01 06:56:08;;;;;;;;;;;;;;;11.99;75.25;101790.03;7372674;19;19915;-61
2022/02/01 06:58:33;;;;;;;;;;;;;;;12.02;75.61;101790.00;7375379;19;19919;-60
2022/02/01 07:00:58;;;;;;;;;;;;;;;12.01;75.26;101807.44;7371718;19;20335;-61
2022/02/01 07:03:24;;;;;;;;;;;;;;;12.02;75.14;101806.59;7375814;19;19930;-61
2022/02/01 07:05:49;;;;;;;;;;;;;;;12.03;75.67;101812.69;7376267;19;19950;-61
2022/02/01 07:08:14;;;;;;;;;;;;;;;12.03;75.26;101821.41;7368790;19;19930;-61
2022/02/01 07:10:40;;;;;;;;;;;;;;;12.04;75.55;101815.28;7369140;19;19929;-60
2022/02/01 07:13:05;;;;;;;;;;;;;;;12.04;75.49;101815.28;7365747;19;20346;-61
2022/02/01 07:15:31;;;;;;;;;;;;;;;12.05;75.28;101819.63;7365285;19;19926;-60
2022/02/01 07:17:56;;;;;;;;;;;;;;;12.07;75.55;101815.25;7363814;19;21520;-61
2022/02/01 07:20:23;;;;;;;;;;;;;;;12.08;75.83;101822.22;7357662;19;19930;-61
2022/02/01 07:22:49;;;;;;;;;;;;;;;12.10;75.37;101815.22;7367664;19;19910;-61
2022/02/01 07:25:29;;;;;;;;;;;;;;;12.11;75.29;101811.69;7369496;19;19925;-61
2022/02/01 07:27:55;;;;;;;;;;;;;;;12.12;75.71;101812.59;7361672;19;19945;-61
2022/02/01 07:30:24;;;;;;;;;;;;;;;12.12;75.45;101810.84;7364075;19;19919;-61
2022/02/01 07:32:50;;;;;;;;;;;;;;;12.14;75.66;101819.53;7369615;19;19995;-61
2022/02/01 07:35:16;;;;;;;;;;;;;;;12.15;75.39;101813.41;7362158;19;19919;-61
2022/02/01 07:37:43;;;;;;;;;;;;;;;12.15;75.19;101820.41;7363446;19;19972;-61
2022/02/01 07:40:08;;;;;;;;;;;;;;;12.16;75.49;101811.66;7366635;19;19945;-61
2022/02/01 07:42:34;;;;;;;;;;;;;;;12.16;75.68;101809.88;7365319;19;19915;-61
2022/02/01 07:45:03;;;;;;;;;;;;;;;12.17;75.48;101810.78;5240720;19;10020900;-61
2022/02/01 07:47:28;;;;;;;;;;;;;;;12.17;75.45;101803.78;3249407;19;10001161;-61
2022/02/01 07:49:54;;;;;;;;;;;;;;;12.18;75.21;101800.28;7362432;19;19929;-61
2022/02/01 07:52:19;;;;;;;;;;;;;;;12.18;75.52;101812.50;7367197;19;19941;-61
2022/02/01 07:54:45;;;;;;;;;;;;;;;12.18;75.61;101808.13;7340086;19;20463;-60
2022/02/01 07:57:11;;;;;;;;;;;;;;;12.20;75.20;101800.25;7358393;19;20006;-61
2022/02/01 07:59:36;;;;;;;;;;;;;;;12.20;75.30;101801.13;7366419;19;19935;-61
2022/02/01 08:02:03;;;;;;;;;;;;;;;12.20;75.73;101795.03;7364081;19;19926;-61
2022/02/01 08:04:32;;;;;;;;;;;;;;;12.20;75.35;101806.34;7368858;19;19978;-61
2022/02/01 08:06:58;;;;;;;;;;;;;;;12.23;75.38;101799.38;7361698;19;19907;-61
2022/02/01 08:09:29;;;;;;;;;;;;;;;12.24;75.54;101806.34;7364898;19;20827;-61
2022/02/01 08:11:55;;;;;;;;;;;;;;;12.25;75.55;101823.78;7357608;19;19915;-62
2022/02/01 08:17:30;;;;;;;;;;;;;;;12.27;75.38;101806.31;7359497;19;19929;-62
2022/02/01 08:20:01;;;;;;;;;;;;;;;12.28;75.53;101813.28;7359603;19;20336;-61
2022/02/01 08:23:00;;;;;;;;;;;;;;;12.29;75.53;101815.00;7366298;19;20345;-61
2022/02/01 08:25:24;;;;;;;;;;;;;;;12.31;75.25;101815.84;7263244;19;2004999;-61
2022/02/01 08:27:50;;;;;;;;;;;;;;;12.32;75.41;101807.13;7367770;19;19918;-61
2022/02/01 08:30:15;;;;;;;;;;;;;;;12.33;75.34;101803.59;7365442;19;19946;-61
2022/02/01 08:32:40;;;;;;;;;;;;;;;12.34;75.47;101803.59;7369021;19;20400;-61
2022/02/01 08:35:06;;;;;;;;;;;;;;;12.35;75.15;101805.31;7359591;19;19915;-60
2022/02/01 08:37:32;;;;;;;;;;;;;;;12.36;75.31;101796.56;7365159;19;19926;-61
2022/02/01 08:39:57;;;;;;;;;;;;;;;12.37;75.39;101808.78;7372164;19;19990;-61
2022/02/01 08:42:23;;;;;;;;;;;;;;;12.39;75.33;101808.75;7370385;19;19923;-61
2022/02/01 08:44:48;;;;;;;;;;;;;;;12.40;74.98;101813.13;7372540;19;19938;-61
2022/02/01 08:47:14;;;;;;;;;;;;;;;12.43;75.36;101813.09;7367087;19;19974;-61
2022/02/01 08:49:40;;;;;;;;;;;;;;;12.43;75.13;101813.94;7364467;19;19917;-61
2022/02/01 08:52:09;;;;;;;;;;;;;;;12.45;75.01;101821.78;7356833;19;19933;-61
2022/02/01 08:54:36;;;;;;;;;;;;;;;12.47;74.94;101827.88;7359972;19;19945;-61
2022/02/01 08:57:21;;;;;;;;;;;;;;;12.49;75.22;101826.09;7366100;19;20297;-66
2022/02/01 08:59:48;;;;;;;;;;;;;;;12.51;74.95;101832.19;7361498;19;19927;-61
2022/02/01 09:02:15;;;;;;;;;;;;;;;12.54;74.98;101831.28;7361869;19;19926;-61
2022/02/01 09:04:40;;;;;;;;;;;;;;;12.56;75.10;101830.38;7358164;19;19910;-61
2022/02/01 09:07:06;;;;;;;;;;;;;;;12.60;74.99;101832.06;7362803;19;19940;-61
2022/02/01 09:09:32;;;;;;;;;;;;;;;12.63;75.31;101839.03;7342339;19;19950;-62
2022/02/01 09:11:57;;;;;;;;;;;;;;;12.65;74.89;101843.34;7352848;19;19921;-60
2022/02/01 09:14:24;;;;;;;;;;;;;;;12.69;75.03;101862.53;7359916;19;19965;-62
2022/02/01 09:16:49;;;;;;;;;;;;;;;12.71;74.80;101866.84;7363679;19;19919;-61
2022/02/01 09:19:15;;;;;;;;;;;;;;;12.73;74.75;101859.88;7365418;19;19922;-61
2022/02/01 09:21:40;;;;;;;;;;;;;;;12.76;74.68;101863.31;7359522;19;19951;-61
2022/02/01 09:24:06;;;;;;;;;;;;;;;12.78;74.91;101875.53;7369261;19;21903;-61
2022/02/01 09:26:32;;;;;;;;;;;;;;;12.79;74.96;101868.53;7366463;19;19919;-61
2022/02/01 09:28:57;;;;;;;;;;;;;;;12.80;74.61;101872.88;7365961;19;19939;-61
2022/02/01 09:31:22;;;;;;;;;;;;;;;12.79;74.53;101884.25;7357464;19;19953;-61
2022/02/01 09:33:47;;;;;;;;;;;;;;;12.80;74.69;101885.97;7363188;19;19915;-61
2022/02/01 09:36:13;;;;;;;;;;;;;;;12.81;74.35;101882.47;7363084;19;19915;-61
2022/02/01 09:38:38;;;;;;;;;;;;;;;12.80;74.47;101878.13;7356595;19;20463;-60
2022/02/01 09:41:04;;;;;;;;;;;;;;;12.81;74.39;101885.09;7356546;19;20285;-61
2022/02/01 09:43:30;;;;;;;;;;;;;;;12.80;74.78;101891.22;7348057;19;19922;-65
2022/02/01 09:45:57;;;;;;;;;;;;;;;12.81;74.40;101877.22;7362991;19;19965;-66
2022/02/01 09:48:23;;;;;;;;;;;;;;;12.81;74.69;101882.47;7358029;19;19978;-66
2022/02/01 09:50:49;;;;;;;;;;;;;;;12.82;74.27;101878.97;7358865;19;19946;-64
2022/02/01 09:53:15;;;;;;;;;;;;;;;12.82;74.62;101873.72;7361183;19;19934;-66
2022/02/01 09:55:41;;;;;;;;;;;;;;;12.82;74.76;101881.56;7355630;19;19923;-64
2022/02/01 09:58:06;;;;;;;;;;;;;;;12.84;74.47;101871.97;7355507;19;19919;-65
2022/02/01 10:00:35;;;;;;;;;;;;;;;12.83;74.34;101867.59;7357670;19;19954;-65
2022/02/01 10:03:01;;;;;;;;;;;;;;;12.83;74.66;101859.75;7363863;19;19999;-66
2022/02/01 10:05:27;;;;;;;;;;;;;;;12.83;74.41;101863.22;7361271;19;19974;-66
2022/02/01 10:07:57;;;;;;;;;;;;;;;12.84;74.35;101862.34;7360601;19;19921;-64
2022/02/01 10:10:26;;;;;;;;;;;;;;;12.86;74.44;101867.56;7361451;19;20001;-64
2022/02/01 10:12:55;;;;;;;;;;;;;;;12.88;74.90;101863.16;7360973;19;19962;-66
2022/02/01 10:15:25;;;;;;;;;;;;;;;12.91;74.42;101865.72;7365898;19;19947;-66
2022/02/01 10:17:57;;;;;;;;;;;;;;;12.92;74.50;101865.69;7359411;19;19946;-65
2022/02/01 10:20:31;;;;;;;;;;;;;;;12.95;74.43;101854.31;7369519;19;19921;-66
2022/02/01 10:22:57;;;;;;;;;;;;;;;12.98;74.79;101859.53;7356665;19;19925;-66
2022/02/01 10:25:29;;;;;;;;;;;;;;;13.00;74.68;101852.50;7364670;19;19982;-66
2022/02/01 10:28:03;;;;;;;;;;;;;;;13.04;74.54;101848.09;7365177;19;19975;-66
2022/02/01 10:30:30;;;;;;;;;;;;;;;13.06;74.27;101847.16;7358578;19;19915;-64
2022/02/01 10:37:58;;;;;;;;;;;;;;;13.16;74.65;101842.66;7345437;19;19948;-66
2022/02/01 10:40:23;;;;;;;;;;;;;;;13.18;74.60;101836.50;7354505;19;19945;-64
2022/02/01 10:42:54;;;;;;;;;;;;;;;13.21;74.65;101831.22;7358536;19;19930;-62
2022/02/01 10:45:19;;;;;;;;;;;;;;;13.26;74.23;101848.66;7357017;19;19911;-61
2022/02/01 10:47:44;;;;;;;;;;;;;;;13.30;74.45;101835.47;7358879;19;20367;-62
2022/02/01 10:50:11;;;;;;;;;;;;;;;13.34;74.37;101846.78;7352157;19;19922;-60
2022/02/01 10:52:39;;;;;;;;;;;;;;;13.36;74.55;101834.50;7358769;19;19907;-60
2022/02/01 10:55:06;;;;;;;;;;;;;;;13.39;74.23;101839.72;7351160;19;19976;-63
2022/02/01 10:57:31;;;;;;;;;;;;;;;13.44;74.30;101843.13;7358360;19;19949;-61
2022/02/01 10:59:56;;;;;;;;;;;;;;;13.46;74.33;101841.34;7357196;19;19919;-64
2022/02/01 11:02:23;;;;;;;;;;;;;;;13.48;73.89;101844.78;7352193;19;19911;-64
2022/02/01 11:04:51;;;;;;;;;;;;;;;13.49;74.28;101851.78;7288306;19;19919;-64
2022/02/01 11:07:17;;;;;;;;;;;;;;;13.50;74.16;101867.50;1165667;19;10001961;-63
2022/02/01 11:09:43;;;;;;;;;;;;;;;13.52;74.01;101856.09;7360011;19;19918;-64
2022/02/01 11:12:10;;;;;;;;;;;;;;;13.53;74.05;101847.34;7362525;19;19944;-64
2022/02/01 11:14:53;;;;;;;;;;;;;;;13.53;73.88;101848.19;7355656;19;19923;-64
2022/02/01 11:17:21;;;;;;;;;;;;;;;13.56;74.05;101847.31;7358580;19;20580;-63
2022/02/01 11:19:57;;;;;;;;;;;;;;;13.56;73.97;101847.31;7357275;19;19927;-63
2022/02/01 11:22:29;;;;;;;;;;;;;;;13.56;73.51;101844.69;7354728;19;19982;-63
2022/02/01 11:25:06;;;;;;;;;;;;;;;13.56;73.80;101850.78;7363101;19;19930;-63
2022/02/01 11:27:43;;;;;;;;;;;;;;;13.56;73.72;101848.16;7364727;19;19929;-64
2022/02/01 11:30:12;;;;;;;;;;;;;;;13.55;73.64;101849.06;7355106;19;19922;-64
2022/02/01 11:32:59;;;;;;;;;;;;;;;13.56;73.49;101857.78;7363917;19;20776;-63
2022/02/01 11:35:25;;;;;;;;;;;;;;;13.56;73.48;101853.41;7360379;19;19943;-64
2022/02/01 11:38:09;;;;;;;;;;;;;;;13.56;73.29;101863.91;7359762;19;20089;-64
2022/02/01 11:40:41;;;;;;;;;;;;;;;13.58;73.41;101856.88;7357705;19;19955;-64
2022/02/01 11:43:07;;;;;;;;;;;;;;;13.58;73.64;101859.50;7361031;19;19931;-64
2022/02/01 11:45:34;;;;;;;;;;;;;;;13.59;73.23;101858.63;7359297;19;21281;-63
2022/02/01 11:48:01;;;;;;;;;;;;;;;13.60;73.49;101869.97;7368110;19;19915;-64
2022/02/01 11:50:27;;;;;;;;;;;;;;;13.60;73.49;101873.47;7370194;19;19937;-64
2022/02/01 11:52:54;;;;;;;;;;;;;;;13.62;73.48;101879.53;7368623;19;19929;-64
2022/02/01 11:55:24;;;;;;;;;;;;;;;13.62;73.30;101876.91;7375960;19;19942;-64
2022/02/01 11:57:51;;;;;;;;;;;;;;;13.65;73.63;101873.41;7371985;19;19922;-64
2022/02/01 12:00:22;;;;;;;;;;;;;;;13.66;73.74;101875.13;7365205;19;19923;-63
2022/02/01 12:02:48;;;;;;;;;;;;;;;13.69;73.38;101868.06;7373621;19;21304;-64
2022/02/01 12:05:19;;;;;;;;;;;;;;;13.71;73.83;101866.28;7372953;19;20332;-64
2022/02/01 12:08:17;;;;;;;;;;;;;;;13.76;73.47;101861.81;7362829;19;19929;-64
2022/02/01 12:11:02;;;;;;;;;;;;;;;13.81;73.35;101861.75;7253148;19;2004545;-64
2022/02/01 12:13:29;;;;;;;;;;;;;;;13.83;73.53;101859.94;7366521;19;19923;-63
2022/02/01 12:15:56;;;;;;;;;;;;;;;13.87;73.08;101855.50;7360928;19;19931;-64
2022/02/01 12:18:28;;;;;;;;;;;;;;;13.89;73.15;101845.81;7361901;19;19922;-63
2022/02/01 12:21:09;;;;;;;;;;;;;;;13.92;73.21;101848.41;7362287;19;20695;-64
2022/02/01 12:23:35;;;;;;;;;;;;;;;13.94;73.21;101833.50;7362542;19;19915;-63
2022/02/01 12:26:00;;;;;;;;;;;;;;;13.97;72.79;101828.19;7354303;19;20671;-64
2022/02/01 12:28:26;;;;;;;;;;;;;;;13.98;73.10;101824.66;7363720;19;20346;-64
2022/02/01 12:30:53;;;;;;;;;;;;;;;14.00;72.93;101826.38;7365344;19;19922;-64
2022/02/01 12:33:22;;;;;;;;;;;;;;;14.04;72.98;101837.69;7355364;19;19921;-63
2022/02/01 12:35:50;;;;;;;;;;;;;;;14.07;73.02;101829.75;7363074;19;19933;-64
2022/02/01 12:38:21;;;;;;;;;;;;;;;14.08;72.86;101828.84;7362167;19;19957;-63
2022/02/01 12:40:50;;;;;;;;;;;;;;;14.09;72.79;101829.69;7368989;19;19925;-64
2022/02/01 12:43:20;;;;;;;;;;;;;;;14.08;72.67;101823.59;7368728;19;19945;-63
2022/02/01 12:46:02;;;;;;;;;;;;;;;14.07;72.67;101807.88;7369652;19;19982;-63
2022/02/01 12:48:27;;;;;;;;;;;;;;;14.06;72.45;101811.41;7362456;19;19923;-63
2022/02/01 12:50:54;;;;;;;;;;;;;;;14.04;72.42;101806.19;7364623;19;19914;-64
2022/02/01 12:53:19;;;;;;;;;;;;;;;14.04;72.15;101800.94;7364100;19;19921;-64
2022/02/01 12:55:44;;;;;;;;;;;;;;;14.03;72.33;101796.53;7362176;19;19911;-63
2022/02/01 12:58:13;;;;;;;;;;;;;;;14.03;72.56;101791.28;7355867;19;19915;-63
2022/02/01 13:00:38;;;;;;;;;;;;;;;14.04;72.10;101795.69;7357284;19;20324;-63
2022/02/01 13:03:05;;;;;;;;;;;;;;;14.05;72.09;101800.03;7362581;19;19982;-64
2022/02/01 13:05:31;;;;;;;;;;;;;;;14.09;72.11;101806.97;7361913;19;19918;-64
2022/02/01 13:15:48;;;;;;;;;;;;;;;14.13;72.18;101810.38;7362169;19;19914;-63
2022/02/01 13:18:26;;;;;;;;;;;;;;;14.14;71.82;101807.72;7360948;19;19963;-63
2022/02/01 13:20:57;;;;;;;;;;;;;;;14.15;71.68;101822.59;7361288;19;19928;-63
2022/02/01 13:23:33;;;;;;;;;;;;;;;14.15;71.95;101817.34;7360474;19;20322;-64
2022/02/01 13:25:58;;;;;;;;;;;;;;;14.15;71.90;101809.47;7361502;19;19925;-63
2022/02/01 13:28:23;;;;;;;;;;;;;;;14.13;71.87;101819.09;7363286;19;19978;-63
2022/02/01 13:30:49;;;;;;;;;;;;;;;14.12;71.87;101812.13;7357435;19;19919;-64
2022/02/01 13:33:15;;;;;;;;;;;;;;;14.10;71.57;101806.06;7364266;19;19925;-64
2022/02/01 13:35:50;;;;;;;;;;;;;;;14.12;71.80;101814.75;7365950;19;19975;-63
2022/02/01 13:38:15;;;;;;;;;;;;;;;14.14;71.90;101815.63;7360167;19;20595;-64
2022/02/01 13:40:41;;;;;;;;;;;;;;;14.20;72.64;101809.38;7359118;19;19911;-63
2022/02/01 13:43:13;;;;;;;;;;;;;;;14.31;72.84;101802.13;7356779;19;19915;-63
2022/02/01 13:45:39;;;;;;;;;;;;;;;14.44;72.64;101802.72;7360114;19;19998;-63
2022/02/01 13:48:04;;;;;;;;;;;;;;;14.55;72.14;101811.31;7362849;19;19974;-63
2022/02/01 13:50:33;;;;;;;;;;;;;;;14.62;71.98;101802.38;7354817;19;19919;-63
2022/02/01 13:53:00;;;;;;;;;;;;;;;14.67;71.11;101811.03;7356883;19;19937;-63
2022/02/01 13:55:28;;;;;;;;;;;;;;;14.68;70.80;101812.75;7347620;19;19948;-63
2022/02/01 13:58:13;;;;;;;;;;;;;;;14.65;70.52;101820.72;7352963;19;19915;-64
2022/02/01 14:00:43;;;;;;;;;;;;;;;14.63;70.60;101819.88;7357236;19;19915;-64
2022/02/01 14:05:44;;;;;;;;;;;;;;;14.62;71.38;101810.25;7352683;19;19915;-63
2022/02/01 14:16:23;;;;;;;;;;;;;;;14.64;70.44;101826.00;7355701;19;19949;-63
2022/02/01 14:27:33;;;;;;;;;;;;;;;14.53;70.75;101824.44;7364741;19;19929;-63
2022/02/01 14:34:39;;;;;;;;;;;;;;;14.47;70.74;101844.72;7354511;19;19927;-63
2022/02/01 14:37:12;;;;;;;;;;;;;;;14.44;70.89;101834.25;7356079;19;19943;-63
2022/02/01 14:45:23;;;;;;;;;;;;;;;14.33;70.86;101836.25;6594242;19;10000307;-63